createdAt,value
2023-01-18T00:01:19.537Z,97996.53
2023-01-18T00:03:48.340Z,97984.47
2023-01-18T00:06:18.085Z,98005.03
2023-01-18T00:08:46.995Z,98005.94
2023-01-18T00:11:18.563Z,98005.84
2023-01-18T00:13:47.128Z,97995.31
2023-01-18T00:16:19.494Z,97997.28
2023-01-18T00:18:53.074Z,98007.31
2023-01-18T00:21:21.434Z,97968.03
2023-01-18T00:23:49.873Z,98009.78
2023-01-18T00:26:18.331Z,98001.88
2023-01-18T00:28:47.220Z,98015.22
2023-01-18T00:31:18.578Z,98014.72
2023-01-18T00:33:47.935Z,98012.75
2023-01-18T00:36:17.406Z,98016.06
2023-01-18T00:38:51.541Z,97997.28
2023-01-18T00:41:20.404Z,98026.31
2023-01-18T00:43:47.900Z,98012.66
2023-01-18T00:46:20.418Z,98035.88
2023-01-18T00:48:48.746Z,98025.88
2023-01-18T00:51:19.505Z,98036.13
2023-01-18T00:53:47.811Z,98021.09
2023-01-18T00:56:20.086Z,98022.91
2023-01-18T00:58:48.520Z,98039.31
2023-01-18T01:01:18.465Z,98056.41
2023-01-18T01:04:06.587Z,98050.34
2023-01-18T01:06:46.532Z,98046.03
2023-01-18T01:09:18.411Z,98059.19
2023-01-18T01:12:01.577Z,98061.22
2023-01-18T01:14:47.128Z,98064.31
2023-01-18T01:17:34.866Z,98070.09
2023-01-18T01:20:20.697Z,98072.38
2023-01-18T01:23:06.380Z,98067.03
2023-01-18T01:25:52.115Z,98074.25
2023-01-18T01:28:20.322Z,98076.19
2023-01-18T01:30:48.554Z,98035.91
2023-01-18T01:33:19.900Z,98085.16
2023-01-18T01:35:48.155Z,98087.50
2023-01-18T01:38:17.545Z,98090.91
2023-01-18T01:40:46.121Z,98094.75
2023-01-18T01:43:14.831Z,98094.31
2023-01-18T01:45:43.146Z,98106.59
2023-01-18T01:48:12.373Z,98088.50
2023-01-18T01:50:43.073Z,98104.03
2023-01-18T01:53:12.967Z,98098.16
2023-01-18T01:55:42.688Z,98075.03
2023-01-18T01:58:16.153Z,98110.34
2023-01-18T02:00:46.302Z,98112.34
2023-01-18T02:03:19.652Z,98120.56
2023-01-18T02:05:56.920Z,98103.59
2023-01-18T02:08:27.277Z,98086.72
2023-01-18T02:10:55.897Z,98128.31
2023-01-18T02:13:25.994Z,98132.31
2023-01-18T02:16:04.870Z,98145.94
2023-01-18T02:18:39.564Z,98136.59
2023-01-18T02:21:17.276Z,98124.81
2023-01-18T02:24:17.596Z,98132.66
2023-01-18T02:27:12.755Z,98107.81
2023-01-18T02:30:04.074Z,98152.06
2023-01-18T02:32:45.967Z,98149.75
2023-01-18T02:35:21.882Z,98154.78
2023-01-18T02:37:56.409Z,98112.00
2023-01-18T02:40:32.663Z,98134.22
2023-01-18T02:43:22.132Z,98152.06
2023-01-18T02:46:09.411Z,98149.84
2023-01-18T02:48:40.724Z,98162.50
2023-01-18T02:51:09.359Z,98172.97
2023-01-18T02:53:41.801Z,98174.69
2023-01-18T02:56:16.833Z,98156.53
2023-01-18T02:58:51.412Z,98176.81
2023-01-18T03:01:27.334Z,98179.31
2023-01-18T03:04:00.361Z,98178.53
2023-01-18T03:06:30.928Z,98181.69
2023-01-18T03:09:01.692Z,98161.72
2023-01-18T03:11:37.716Z,98179.09
2023-01-18T03:14:17.202Z,98171.38
2023-01-18T03:17:00.133Z,98184.94
2023-01-18T03:19:56.981Z,98160.75
2023-01-18T03:22:42.348Z,98206.38
2023-01-18T03:25:14.540Z,98190.97
2023-01-18T03:28:03.280Z,98192.59
2023-01-18T03:30:52.446Z,98189.19
2023-01-18T03:33:43.168Z,98194.53
2023-01-18T03:36:19.281Z,98194.50
2023-01-18T03:38:52.364Z,98174.06
2023-01-18T03:41:23.597Z,98186.81
2023-01-18T03:43:55.506Z,98183.88
2023-01-18T03:46:27.543Z,98187.00
2023-01-18T03:48:57.857Z,98172.25
2023-01-18T03:51:33.341Z,98193.81
2023-01-18T03:54:08.067Z,98193.00
2023-01-18T03:56:46.138Z,98202.28
2023-01-18T03:59:18.130Z,98194.97
2023-01-18T04:01:48.470Z,98205.16
2023-01-18T04:04:18.149Z,98198.09
2023-01-18T04:06:46.452Z,98203.34
2023-01-18T04:09:15.051Z,98201.72
2023-01-18T04:11:43.204Z,98201.63
2023-01-18T04:14:11.545Z,98191.75
2023-01-18T04:16:39.957Z,98191.34
2023-01-18T04:19:08.964Z,98192.88
2023-01-18T04:21:39.180Z,98210.75
2023-01-18T04:24:08.060Z,98188.63
2023-01-18T04:26:36.273Z,98174.22
2023-01-18T04:29:05.112Z,98222.06
2023-01-18T04:31:33.644Z,98220.91
2023-01-18T04:34:01.809Z,98221.03
2023-01-18T04:36:30.134Z,98229.69
2023-01-18T04:39:00.129Z,98209.47
2023-01-18T04:41:28.512Z,98212.28
2023-01-18T04:43:56.718Z,98210.66
2023-01-18T04:46:25.368Z,98218.88
2023-01-18T04:48:53.703Z,98219.78
2023-01-18T04:51:24.119Z,98209.31
2023-01-18T04:53:52.593Z,98225.28
2023-01-18T04:56:22.359Z,98216.72
2023-01-18T04:58:50.578Z,98220.06
2023-01-18T05:01:19.213Z,98214.38
2023-01-18T05:03:47.608Z,98209.22
2023-01-18T05:06:20.034Z,98195.44
2023-01-18T05:08:48.605Z,98219.69
2023-01-18T05:11:18.269Z,98214.63
2023-01-18T05:13:48.403Z,98217.72
2023-01-18T05:16:19.276Z,98212.75
2023-01-18T05:18:48.016Z,98222.63
2023-01-18T05:21:17.293Z,98214.56
2023-01-18T05:23:45.900Z,98237.69
2023-01-18T05:26:21.216Z,98243.25
2023-01-18T05:28:52.109Z,98242.38
2023-01-18T05:31:21.420Z,98243.16
2023-01-18T05:33:50.533Z,98248.81
2023-01-18T05:36:18.850Z,98240.75
2023-01-18T05:38:48.225Z,98239.16
2023-01-18T05:41:21.255Z,98255.56
2023-01-18T05:43:51.996Z,98258.25
2023-01-18T05:46:20.219Z,98253.03
2023-01-18T05:48:48.927Z,98261.44
2023-01-18T05:51:19.992Z,98266.66
2023-01-18T05:53:48.316Z,98262.38
2023-01-18T05:56:19.705Z,98261.22
2023-01-18T05:58:48.000Z,98262.50
2023-01-18T06:01:17.917Z,98258.16
2023-01-18T06:03:46.433Z,98264.75
2023-01-18T06:06:16.509Z,98268.47
2023-01-18T06:08:44.930Z,98268.19
2023-01-18T06:11:13.290Z,98258.09
2023-01-18T06:13:41.728Z,98251.91
2023-01-18T06:16:11.225Z,98261.69
2023-01-18T06:18:41.767Z,98260.72
2023-01-18T06:21:10.944Z,98286.88
2023-01-18T06:23:39.448Z,98288.00
2023-01-18T06:26:07.728Z,98289.53
2023-01-18T06:28:36.361Z,98282.69
2023-01-18T06:31:08.487Z,98271.84
2023-01-18T06:33:37.170Z,98280.97
2023-01-18T06:36:07.533Z,98218.91
2023-01-18T06:38:35.929Z,98271.38
2023-01-18T06:41:04.399Z,98265.38
2023-01-18T06:43:32.717Z,98263.03
2023-01-18T06:46:01.383Z,98270.50
2023-01-18T06:48:29.967Z,98284.69
2023-01-18T06:50:59.438Z,98236.72
2023-01-18T06:53:29.084Z,98294.72
2023-01-18T06:55:58.458Z,98285.91
2023-01-18T06:58:28.443Z,98287.06
2023-01-18T07:00:57.830Z,98282.84
2023-01-18T07:03:26.242Z,98289.38
2023-01-18T07:05:55.048Z,98255.63
2023-01-18T07:08:24.832Z,98284.91
2023-01-18T07:10:55.535Z,98279.88
2023-01-18T07:13:24.161Z,98253.06
2023-01-18T07:15:56.867Z,98253.72
2023-01-18T07:18:25.886Z,98249.44
2023-01-18T07:21:02.158Z,98289.19
2023-01-18T07:23:31.379Z,98291.03
2023-01-18T07:26:02.140Z,98293.81
2023-01-18T07:28:31.202Z,98312.94
2023-01-18T07:30:59.612Z,98295.53
2023-01-18T07:33:27.763Z,98304.19
2023-01-18T07:35:56.749Z,98314.56
2023-01-18T07:38:25.928Z,98312.03
2023-01-18T07:40:59.944Z,98307.88
2023-01-18T07:43:30.206Z,98321.41
2023-01-18T07:45:59.396Z,98321.47
2023-01-18T07:48:28.213Z,98328.50
2023-01-18T07:50:57.771Z,98332.25
2023-01-18T07:53:27.297Z,98341.97
2023-01-18T07:55:55.979Z,98331.03
2023-01-18T07:58:24.432Z,98347.06
2023-01-18T08:00:54.179Z,98356.34
2023-01-18T08:03:23.228Z,98359.22
2023-01-18T08:05:51.938Z,98355.03
2023-01-18T08:08:20.216Z,98354.97
2023-01-18T08:10:48.303Z,98348.13
2023-01-18T08:13:19.593Z,98351.94
2023-01-18T08:15:47.851Z,98360.38
2023-01-18T08:18:18.240Z,98383.13
2023-01-18T08:20:49.346Z,98398.63
2023-01-18T08:23:18.022Z,98383.88
2023-01-18T08:25:47.581Z,98397.06
2023-01-18T08:28:16.164Z,98395.06
2023-01-18T08:30:46.140Z,98413.09
2023-01-18T08:33:15.510Z,98409.84
2023-01-18T08:35:47.354Z,98426.41
2023-01-18T08:38:17.327Z,98428.66
2023-01-18T08:40:46.733Z,98448.91
2023-01-18T08:43:14.991Z,98457.50
2023-01-18T08:45:43.319Z,98463.09
2023-01-18T08:48:12.650Z,98436.47
2023-01-18T08:50:43.270Z,98468.09
2023-01-18T08:53:13.442Z,98463.16
2023-01-18T08:55:41.711Z,98463.41
2023-01-18T08:58:09.970Z,98484.06
2023-01-18T09:00:38.250Z,98491.06
2023-01-18T09:03:07.010Z,98496.53
2023-01-18T09:05:36.778Z,98511.16
2023-01-18T09:08:05.053Z,98505.41
2023-01-18T09:10:37.649Z,98507.03
2023-01-18T09:13:06.069Z,98519.22
2023-01-18T09:15:34.374Z,98529.84
2023-01-18T09:18:06.534Z,98545.16
2023-01-18T09:20:37.023Z,98548.31
2023-01-18T09:23:06.467Z,98547.19
2023-01-18T09:25:37.226Z,98533.63
2023-01-18T09:28:06.779Z,98546.81
2023-01-18T09:30:36.005Z,98555.25
2023-01-18T09:33:04.876Z,98577.50
2023-01-18T09:35:33.368Z,98565.78
2023-01-18T09:38:01.504Z,98587.22
2023-01-18T09:40:44.089Z,98608.66
2023-01-18T09:43:18.224Z,98615.59
2023-01-18T09:45:49.072Z,98625.03
2023-01-18T09:48:29.744Z,98626.63
2023-01-18T09:51:02.677Z,98641.25
2023-01-18T09:53:47.169Z,98647.56
2023-01-18T09:56:21.573Z,98655.28
2023-01-18T09:59:01.047Z,98655.34
2023-01-18T10:01:33.048Z,98665.59
2023-01-18T10:04:04.851Z,98660.41
2023-01-18T10:06:45.599Z,98674.88
2023-01-18T10:09:17.753Z,98672.09
2023-01-18T10:11:55.431Z,98668.59
2023-01-18T10:14:31.997Z,98677.66
2023-01-18T10:17:04.778Z,98674.88
2023-01-18T10:19:34.727Z,98694.75
2023-01-18T10:22:08.478Z,98685.91
2023-01-18T10:24:51.384Z,98697.72
2023-01-18T10:28:04.720Z,98706.31
2023-01-18T10:30:50.592Z,98710.19
2023-01-18T10:33:23.324Z,98708.44
2023-01-18T10:35:54.425Z,98711.63
2023-01-18T10:38:26.985Z,98727.94
2023-01-18T10:40:59.039Z,98704.41
2023-01-18T10:43:31.134Z,98728.53
2023-01-18T10:45:59.624Z,98730.38
2023-01-18T10:48:33.390Z,98759.09
2023-01-18T10:51:03.371Z,98760.44
2023-01-18T10:53:33.565Z,98774.34
2023-01-18T10:56:06.173Z,98780.09
2023-01-18T10:58:43.030Z,98771.38
2023-01-18T11:01:17.788Z,98776.50
2023-01-18T11:03:48.975Z,98802.47
2023-01-18T11:06:20.794Z,98785.03
2023-01-18T11:08:50.345Z,98799.69
2023-01-18T11:11:50.449Z,98807.72
2023-01-18T11:14:32.044Z,98809.22
2023-01-18T11:17:02.634Z,98818.88
2023-01-18T11:19:31.592Z,98816.91
2023-01-18T11:21:59.894Z,98813.47
2023-01-18T11:24:30.755Z,98806.66
2023-01-18T11:27:02.102Z,98818.78
2023-01-18T11:29:35.912Z,98822.22
2023-01-18T11:32:06.950Z,98822.00
2023-01-18T11:34:37.241Z,98832.16
2023-01-18T11:37:19.710Z,98838.03
2023-01-18T11:39:48.064Z,98844.22
2023-01-18T11:42:22.580Z,98855.06
2023-01-18T11:45:12.526Z,98812.13
2023-01-18T11:47:51.874Z,98868.81
2023-01-18T11:50:29.269Z,98858.06
2023-01-18T11:53:04.341Z,98873.78
2023-01-18T11:55:36.576Z,98873.13
2023-01-18T11:58:06.513Z,98879.66
2023-01-18T12:00:47.208Z,98892.34
2023-01-18T12:03:32.369Z,98875.69
2023-01-18T12:06:07.616Z,98887.00
2023-01-18T12:09:00.682Z,98889.78
2023-01-18T12:11:46.112Z,98903.97
2023-01-18T12:14:29.026Z,98906.88
2023-01-18T12:17:12.744Z,98915.41
2023-01-18T12:20:02.730Z,98912.19
2023-01-18T12:23:03.215Z,98928.09
2023-01-18T12:25:50.886Z,98924.56
2023-01-18T12:28:34.697Z,98914.16
2023-01-18T12:31:16.209Z,98927.84
2023-01-18T12:33:53.971Z,98931.28
2023-01-18T12:36:46.338Z,98938.91
2023-01-18T12:39:28.618Z,98935.31
2023-01-18T12:42:01.155Z,98947.06
2023-01-18T12:44:44.855Z,98956.69
2023-01-18T12:47:25.262Z,98952.59
2023-01-18T12:50:00.082Z,98947.31
2023-01-18T12:52:31.237Z,98957.88
2023-01-18T12:55:05.583Z,98957.25
2023-01-18T12:57:36.661Z,98959.84
2023-01-18T13:00:09.394Z,98957.75
2023-01-18T13:02:41.975Z,98964.75
2023-01-18T13:05:20.789Z,98975.00
2023-01-18T13:07:55.859Z,98974.13
2023-01-18T13:10:26.404Z,98973.25
2023-01-18T13:12:57.381Z,98980.94
2023-01-18T13:15:35.483Z,98979.09
2023-01-18T13:18:12.206Z,98989.56
2023-01-18T13:20:53.363Z,98981.81
2023-01-18T13:23:33.657Z,98985.47
2023-01-18T13:26:16.296Z,98984.59
2023-01-18T13:28:46.437Z,98993.53
2023-01-18T13:31:15.076Z,99005.69
2023-01-18T13:33:46.243Z,98997.81
2023-01-18T13:36:21.442Z,99006.50
2023-01-18T13:38:53.600Z,98985.03
2023-01-18T13:41:25.134Z,99009.94
2023-01-18T13:44:05.977Z,99003.94
2023-01-18T13:46:36.841Z,99014.56
2023-01-18T13:49:37.204Z,99023.47
2023-01-18T13:52:30.737Z,98989.06
2023-01-18T13:55:04.235Z,99035.13
2023-01-18T13:57:34.825Z,99030.59
2023-01-18T14:00:03.991Z,99033.06
2023-01-18T14:02:42.966Z,99032.06
2023-01-18T14:05:25.330Z,99032.84
2023-01-18T14:07:59.408Z,99036.31
2023-01-18T14:10:31.915Z,99031.56
2023-01-18T14:13:02.827Z,99036.81
2023-01-18T14:15:48.177Z,99047.13
2023-01-18T14:18:21.926Z,99046.09
2023-01-18T14:20:59.224Z,99054.88
2023-01-18T14:23:54.047Z,99062.69
2023-01-18T14:26:23.680Z,99066.28
2023-01-18T14:28:58.141Z,99075.84
2023-01-18T14:31:30.487Z,99078.84
2023-01-18T14:33:58.786Z,99080.38
2023-01-18T14:36:29.058Z,99089.19
2023-01-18T14:39:14.793Z,99090.16
2023-01-18T14:41:45.911Z,99100.41
2023-01-18T14:44:20.575Z,99095.34
2023-01-18T14:46:51.659Z,99105.13
2023-01-18T14:49:26.838Z,99110.41
2023-01-18T14:51:55.862Z,99110.41
2023-01-18T14:54:31.416Z,99107.16
2023-01-18T14:57:06.542Z,99121.06
2023-01-18T14:59:38.484Z,99115.66
2023-01-18T15:02:26.002Z,99104.59
2023-01-18T15:05:16.298Z,99116.91
2023-01-18T15:07:53.708Z,99124.66
2023-01-18T15:10:26.501Z,99131.38
2023-01-18T15:12:58.805Z,99090.09
2023-01-18T15:15:36.092Z,99130.59
2023-01-18T15:18:10.767Z,99139.31
2023-01-18T15:20:49.767Z,99136.59
2023-01-18T15:23:18.926Z,99141.41
2023-01-18T15:25:56.929Z,99144.13
2023-01-18T15:28:34.209Z,99141.38
2023-01-18T15:31:07.882Z,99138.94
2023-01-18T15:33:37.813Z,99146.66
2023-01-18T15:36:06.354Z,99156.16
2023-01-18T15:38:34.836Z,99157.94
2023-01-18T15:41:10.705Z,99163.19
2023-01-18T15:43:43.588Z,99150.44
2023-01-18T15:46:15.663Z,99165.84
2023-01-18T15:48:51.002Z,99172.69
2023-01-18T15:51:22.843Z,99170.94
2023-01-18T15:53:56.591Z,99180.50
2023-01-18T15:56:30.062Z,99165.88
2023-01-18T15:59:02.036Z,99180.41
2023-01-18T16:01:35.300Z,99185.25
2023-01-18T16:04:19.945Z,99175.69
2023-01-18T16:06:48.311Z,99189.38
2023-01-18T16:09:23.189Z,99186.69
2023-01-18T16:11:54.782Z,99177.91
2023-01-18T16:14:27.844Z,99185.06
2023-01-18T16:16:57.868Z,99186.91
2023-01-18T16:19:29.702Z,99194.81
2023-01-18T16:22:00.925Z,99200.16
2023-01-18T16:24:34.274Z,99191.41
2023-01-18T16:27:11.556Z,99208.97
2023-01-18T16:29:46.051Z,99213.88
2023-01-18T16:32:29.580Z,99201.88
2023-01-18T16:35:00.339Z,99215.81
2023-01-18T16:37:29.514Z,99219.22
2023-01-18T16:39:57.790Z,99212.19
2023-01-18T16:42:37.640Z,99217.66
2023-01-18T16:45:07.284Z,99227.97
2023-01-18T16:47:35.870Z,99227.88
2023-01-18T16:50:08.415Z,99214.09
2023-01-18T16:52:46.035Z,99234.66
2023-01-18T16:55:21.363Z,99244.25
2023-01-18T16:57:55.618Z,99236.34
2023-01-18T17:00:27.454Z,99224.34
2023-01-18T17:02:55.808Z,99237.63
2023-01-18T17:05:24.166Z,99231.59
2023-01-18T17:07:52.739Z,99243.50
2023-01-18T17:10:23.619Z,99262.66
2023-01-18T17:12:53.338Z,99264.34
2023-01-18T17:15:21.515Z,99256.47
2023-01-18T17:17:50.388Z,99253.81
2023-01-18T17:20:21.293Z,99229.47
2023-01-18T17:22:50.674Z,99265.00
2023-01-18T17:25:19.421Z,99267.81
2023-01-18T17:27:48.149Z,99266.94
2023-01-18T17:30:19.781Z,99262.53
2023-01-18T17:32:48.137Z,99274.75
2023-01-18T17:35:18.943Z,99267.84
2023-01-18T17:37:47.338Z,99276.56
2023-01-18T17:40:23.483Z,99278.31
2023-01-18T17:42:53.689Z,99281.75
2023-01-18T17:45:23.283Z,99280.84
2023-01-18T17:47:53.743Z,99283.34
2023-01-18T17:50:25.155Z,99293.78
2023-01-18T17:52:54.282Z,99290.38
2023-01-18T17:55:27.513Z,99299.84
2023-01-18T17:57:58.967Z,99313.91
2023-01-18T18:00:28.773Z,99312.34
2023-01-18T18:02:57.938Z,99316.56
2023-01-18T18:05:26.764Z,99311.25
2023-01-18T18:07:55.035Z,99309.63
2023-01-18T18:10:23.745Z,99315.63
2023-01-18T18:12:52.201Z,99320.91
2023-01-18T18:15:22.365Z,99335.88
2023-01-18T18:17:52.496Z,99325.41
2023-01-18T18:20:22.227Z,99340.97
2023-01-18T18:22:51.114Z,99335.00
2023-01-18T18:25:19.635Z,99337.66
2023-01-18T18:27:48.156Z,99348.19
2023-01-18T18:30:19.458Z,99344.69
2023-01-18T18:32:47.867Z,99349.94
2023-01-18T18:35:26.422Z,99344.78
2023-01-18T18:37:55.818Z,99356.19
2023-01-18T18:40:25.081Z,99356.22
2023-01-18T18:43:01.769Z,99357.19
2023-01-18T18:45:32.225Z,99364.09
2023-01-18T18:48:00.897Z,99358.94
2023-01-18T18:50:30.713Z,99368.44
2023-01-18T18:53:00.252Z,99366.72
2023-01-18T18:55:28.676Z,99372.88
2023-01-18T18:57:57.149Z,99371.25
2023-01-18T19:00:27.193Z,99378.16
2023-01-18T19:02:59.593Z,99388.59
2023-01-18T19:05:28.081Z,99372.06
2023-01-18T19:07:57.745Z,99385.09
2023-01-18T19:10:27.656Z,99393.84
2023-01-18T19:12:56.243Z,99395.63
2023-01-18T19:15:24.831Z,99397.25
2023-01-18T19:17:54.261Z,99399.91
2023-01-18T19:20:22.895Z,99408.75
2023-01-18T19:22:52.655Z,99410.66
2023-01-18T19:25:22.266Z,99414.28
2023-01-18T19:27:50.614Z,99415.00
2023-01-18T19:30:20.359Z,99397.69
2023-01-18T19:32:51.020Z,99385.56
2023-01-18T19:35:20.171Z,99415.81
2023-01-18T19:37:49.753Z,99405.41
2023-01-18T19:40:18.425Z,99421.09
2023-01-18T19:42:55.022Z,99420.97
2023-01-18T19:45:28.270Z,99387.34
2023-01-18T19:47:58.471Z,99419.28
2023-01-18T19:50:27.834Z,99414.97
2023-01-18T19:52:56.272Z,99419.38
2023-01-18T19:55:25.349Z,99406.41
2023-01-18T19:57:58.266Z,99418.56
2023-01-18T20:00:27.765Z,99423.84
2023-01-18T20:02:55.992Z,99427.34
2023-01-18T20:05:24.341Z,99434.31
2023-01-18T20:07:53.341Z,99430.75
2023-01-18T20:10:21.949Z,99432.59
2023-01-18T20:12:50.909Z,99429.31
2023-01-18T20:15:21.545Z,99426.72
2023-01-18T20:17:49.815Z,99413.75
2023-01-18T20:20:31.444Z,99431.06
2023-01-18T20:23:01.584Z,99438.09
2023-01-18T20:25:30.283Z,99440.75
2023-01-18T20:27:58.462Z,99433.00
2023-01-18T20:30:28.305Z,99446.06
2023-01-18T20:32:56.682Z,99448.75
2023-01-18T20:35:25.102Z,99447.09
2023-01-18T20:37:54.647Z,99450.59
2023-01-18T20:40:22.801Z,99450.59
2023-01-18T20:42:50.924Z,99447.13
2023-01-18T20:45:19.361Z,99440.16
2023-01-18T20:47:48.975Z,99445.38
2023-01-18T20:50:23.377Z,99441.88
2023-01-18T20:52:51.979Z,99428.84
2023-01-18T20:55:20.697Z,99455.81
2023-01-18T20:57:52.176Z,99461.91
2023-01-18T21:00:21.074Z,99458.38
2023-01-18T21:02:51.089Z,99454.00
2023-01-18T21:05:20.137Z,99464.22
2023-01-18T21:07:48.472Z,99477.25
2023-01-18T21:10:17.634Z,99473.69
2023-01-18T21:12:48.160Z,99479.72
2023-01-18T21:15:17.712Z,99479.66
2023-01-18T21:17:45.992Z,99490.34
2023-01-18T21:20:16.059Z,99479.88
2023-01-18T21:22:46.822Z,99479.91
2023-01-18T21:25:15.709Z,99481.53
2023-01-18T21:27:44.775Z,99465.03
2023-01-18T21:30:15.665Z,99472.84
2023-01-18T21:32:44.075Z,99481.50
2023-01-18T21:35:12.932Z,99477.97
2023-01-18T21:37:43.046Z,99487.50
2023-01-18T21:40:12.339Z,99488.38
2023-01-18T21:42:58.100Z,99494.47
2023-01-18T21:45:43.956Z,99490.06
2023-01-18T21:48:12.293Z,99481.28
2023-01-18T21:50:58.481Z,99487.38
2023-01-18T21:53:45.805Z,99492.63
2023-01-18T21:56:14.752Z,99495.31
2023-01-18T21:58:55.281Z,99491.81
2023-01-18T22:01:25.823Z,99489.22
2023-01-18T22:04:13.299Z,99493.50
2023-01-18T22:06:42.542Z,99481.44
2023-01-18T22:09:12.263Z,99497.06
2023-01-18T22:11:40.571Z,99494.53
2023-01-18T22:14:10.864Z,99497.06
2023-01-18T22:16:39.508Z,99505.75
2023-01-18T22:19:07.687Z,99504.13
2023-01-18T22:21:36.370Z,99502.44
2023-01-18T22:24:04.988Z,99506.03
2023-01-18T22:26:36.435Z,99494.66
2023-01-18T22:29:05.084Z,99513.59
2023-01-18T22:31:33.395Z,99505.66
2023-01-18T22:34:04.415Z,99505.63
2023-01-18T22:36:33.103Z,99508.28
2023-01-18T22:39:01.389Z,99514.41
2023-01-18T22:41:31.045Z,99500.59
2023-01-18T22:44:00.724Z,99515.31
2023-01-18T22:46:29.215Z,99517.97
2023-01-18T22:48:57.771Z,99519.81
2023-01-18T22:51:26.289Z,99511.13
2023-01-18T22:53:56.413Z,99518.16
2023-01-18T22:56:26.821Z,99518.13
2023-01-18T22:58:55.417Z,99526.81
2023-01-18T23:01:26.977Z,99519.94
2023-01-18T23:03:58.350Z,99532.09
2023-01-18T23:06:28.244Z,99533.91
2023-01-18T23:08:56.657Z,99537.38
2023-01-18T23:11:27.171Z,99532.19
2023-01-18T23:14:23.483Z,99539.19
2023-01-18T23:17:10.875Z,99542.72
2023-01-18T23:19:39.227Z,99514.94
2023-01-18T23:22:08.072Z,99533.91
2023-01-18T23:24:37.399Z,99532.19
2023-01-18T23:27:06.705Z,99532.25
2023-01-18T23:29:35.196Z,99537.47
2023-01-18T23:32:05.019Z,99541.03
2023-01-18T23:34:33.158Z,99534.03
2023-01-18T23:37:01.463Z,99532.28
2023-01-18T23:39:47.181Z,99547.03
2023-01-18T23:42:32.767Z,99528.91
2023-01-18T23:45:18.590Z,99551.53
2023-01-18T23:48:05.693Z,99552.38
2023-01-18T23:50:51.053Z,99553.34
2023-01-18T23:53:36.474Z,99548.13
2023-01-18T23:56:04.681Z,99537.69
2023-01-18T23:58:33.067Z,99543.72
